Aeroporto :
LOGIN :

Iscrizione | Disclaimer

   EN    FR    IT 

 










Sommario :    VFR   VFR Marginale   IFR   IFR Intensivo   IFR Molto Intensivo
Visibilità : 
Base nubi : 
>= 8 km
>= 3000ft
5 / 8 km
1000 / 3000 ft
1500m / 5 km
500 / 1000 ft
800 / 1500m
200 / 500 ft
< 800m
< 200 ft
Simboli :   Temporali  Nebbia  Neve Forte  Precipitazioni Forti  Vento > 20 kt
SIGMETs :   Varie  Temporali  Ghiacco  Turbolenza  Onda orograficha  Ceneri Vulcaniche






- Altitudine del aeroporto : 174 ft
- Codice IATA : RYG


ENRY - Moss , Rygge

ULTIMO METAR :
  • 210150Z AUTO 22015KT 9999NDV NCD 07/04 Q1021

METARs OBSOLETI :
  • 210120Z AUTO 21013KT 9999NDV FEW230/// 07/05 Q1021
  • 210050Z AUTO 21011KT 9999NDV FEW230/// 07/05 Q1022
  • 210020Z AUTO 21012KT 9999NDV NCD 07/05 Q1022
  • 202350Z AUTO 21010KT 9999NDV NCD 07/05 Q1023
  • 202320Z AUTO 21011KT 9999NDV NCD 07/05 Q1023
  • 202250Z AUTO 18009KT 9999NDV NCD 07/05 Q1023

TAF TAF ENRY
Valido dal 21 a 00 ore il 22 a 00 ore UTC


2100/2124 23008KT CAVOK



MetMap, La meteo Aeronautica in un colpo d'occhio ! - Copyright ORBIFLY Dicembre 2007 - Disclaimer

ORBIFLY MET'MAP TEAM :

Programmazione e sviluppo : Alexandra Zaïnal
Concezione : Baudouin d'Aumeries
Aiuto per la programmazione : Marc-Olivier Méhu
Supporto tecnico e logistico : Manuel Goepfert
Aiuto per la traduzione : Arnaldo La Scala

Contatto : metmap@orbifly.com




FONTI E CREDITI :

   NOAA